Time;durP1;ratioP1;P1;durP2;ratioP2;P2;SDS_P1;SDS_P2;PMS_P1;PMS_P2;Temp;Humidity;BMP_temperature;BMP_pressure;BME280_temperature;BME280_humidity;BME280_pressure;Samples;Min_cycle;Max_cycle;Signal;HPM_P1;HPM_P2
2023/03/10 05:57:37;;;;;;;7.18;6.00;;;22.10;68.70;;;;;;6071362;28;90375;-95
2023/03/10 06:00:39;;;;;;;6.60;5.75;;;22.10;68.80;;;;;;6054138;28;89470;-96
2023/03/10 06:44:45;;;;;;;8.82;7.20;;;22.30;68.40;;;;;;6066436;28;88403;-96
2023/03/10 06:57:38;;;;;;;8.25;6.93;;;22.30;68.30;;;;;;6072155;28;90361;-96
2023/03/10 07:16:24;;;;;;;7.32;6.63;;;22.40;68.30;;;;;;6079355;28;89268;-96
2023/03/10 07:23:15;;;;;;;8.30;7.18;;;22.40;68.30;;;;;;6072210;28;90444;-96
2023/03/10 09:04:01;;;;;;;9.75;7.07;;;22.50;69.00;;;;;;6068922;28;89042;-96
2023/03/10 09:50:32;;;;;;;5.07;4.50;;;22.50;66.10;;;;;;6072293;28;89817;-94
2023/03/10 10:11:15;;;;;;;5.95;4.30;;;22.50;66.70;;;;;;6078388;28;89688;-96
2023/03/10 10:14:21;;;;;;;5.40;4.80;;;22.50;66.70;;;;;;6076341;28;89411;-96
2023/03/10 10:50:21;;;;;;;5.07;4.20;;;22.60;67.40;;;;;;6079589;28;89973;-96
2023/03/10 12:03:56;;;;;;;5.05;3.70;;;22.70;68.10;;;;;;6076857;28;89829;-96
2023/03/10 12:10:24;;;;;;;3.88;3.47;;;22.70;68.10;;;;;;6076951;28;89213;-96
2023/03/10 12:13:31;;;;;;;4.30;3.35;;;22.70;68.10;;;;;;6076349;28;89741;-96
2023/03/10 12:24:30;;;;;;;4.68;3.42;;;22.70;68.10;;;;;;6076007;28;89438;-96
2023/03/10 13:51:59;;;;;;;4.30;3.40;;;22.70;68.40;;;;;;6078578;28;89632;-96
2023/03/10 14:18:31;;;;;;;2.80;2.55;;;22.70;68.40;;;;;;6075849;28;89284;-96
2023/03/10 16:03:21;;;;;;;2.55;2.10;;;22.80;68.50;;;;;;6079277;28;89163;-96
2023/03/10 16:46:42;;;;;;;2.10;1.90;;;22.70;68.50;;;;;;6071700;28;90535;-96
2023/03/10 17:11:08;;;;;;;1.95;1.70;;;22.70;68.50;;;;;;6077609;28;87964;-96
2023/03/10 18:12:04;;;;;;;1.38;1.27;;;22.70;68.40;;;;;;5950840;23;88701;-72
2023/03/10 18:15:08;;;;;;;1.83;1.42;;;22.70;68.40;;;;;;6067268;28;88275;-70
2023/03/10 18:18:10;;;;;;;2.05;1.50;;;22.70;68.40;;;;;;6078132;28;89175;-71
2023/03/10 18:21:14;;;;;;;2.08;1.30;;;22.70;68.40;;;;;;6084419;28;90443;-71
2023/03/10 18:24:17;;;;;;;1.55;1.30;;;22.70;68.40;;;;;;6087329;28;90051;-71
2023/03/10 18:27:22;;;;;;;1.95;1.40;;;22.70;68.40;;;;;;6082181;28;89076;-71
2023/03/10 18:30:25;;;;;;;1.30;1.20;;;22.70;68.40;;;;;;6077284;28;89070;-70
2023/03/10 18:33:28;;;;;;;1.80;1.40;;;22.70;68.50;;;;;;6081101;28;89245;-72
2023/03/10 18:36:31;;;;;;;1.70;1.50;;;22.70;68.50;;;;;;6083817;28;89091;-70
2023/03/10 18:39:35;;;;;;;2.05;1.33;;;22.70;68.50;;;;;;6088588;28;89270;-70
2023/03/10 18:42:40;;;;;;;1.70;1.33;;;22.80;68.60;;;;;;6082065;28;88621;-70
2023/03/10 18:45:43;;;;;;;1.70;1.40;;;22.80;68.60;;;;;;6086348;28;88496;-71
2023/03/10 18:48:54;;;;;;;1.23;1.10;;;22.70;68.60;;;;;;6087268;28;89653;-71
2023/03/10 18:51:56;;;;;;;1.55;1.17;;;22.80;68.60;;;;;;6084291;28;88311;-71
2023/03/10 18:55:00;;;;;;;1.10;1.00;;;22.80;68.60;;;;;;6086740;28;91891;-72
2023/03/10 18:58:03;;;;;;;1.20;1.10;;;22.80;68.60;;;;;;6077296;28;88073;-72
2023/03/10 19:01:10;;;;;;;2.30;1.60;;;22.80;68.60;;;;;;6078791;28;89189;-71
2023/03/10 19:04:13;;;;;;;1.48;1.23;;;22.80;68.70;;;;;;6084599;28;89041;-71
2023/03/10 19:07:19;;;;;;;2.10;1.20;;;22.90;68.80;;;;;;6074995;28;88220;-70
2023/03/10 19:10:23;;;;;;;1.40;1.20;;;22.80;68.70;;;;;;6075691;28;87882;-70
2023/03/10 19:13:29;;;;;;;1.10;1.00;;;22.80;68.70;;;;;;6084875;28;88256;-70
2023/03/10 19:16:34;;;;;;;1.30;1.20;;;22.80;68.60;;;;;;6087460;28;87360;-69
2023/03/10 19:19:37;;;;;;;1.35;1.20;;;22.80;68.70;;;;;;6086051;28;89364;-71
2023/03/10 19:22:42;;;;;;;1.10;1.00;;;22.80;68.70;;;;;;6075545;28;88128;-70
2023/03/10 19:25:45;;;;;;;1.55;1.42;;;22.80;68.70;;;;;;6082349;28;89339;-71
2023/03/10 19:28:53;;;;;;;1.27;1.17;;;22.80;68.70;;;;;;6084643;28;88191;-71
2023/03/10 19:31:58;;;;;;;1.30;1.20;;;22.90;68.80;;;;;;6080013;28;87880;-72
2023/03/10 19:35:00;;;;;;;2.67;1.30;;;22.80;68.70;;;;;;6085315;28;88029;-71
2023/03/10 19:38:05;;;;;;;1.27;1.17;;;22.90;68.70;;;;;;6087002;28;88070;-71
2023/03/10 19:41:12;;;;;;;1.20;1.10;;;22.80;68.70;;;;;;6081677;28;88246;-71
2023/03/10 19:44:17;;;;;;;1.33;1.20;;;22.90;68.80;;;;;;6086793;28;88165;-71
2023/03/10 19:47:19;;;;;;;1.23;1.08;;;22.90;68.80;;;;;;6082097;28;87399;-71
2023/03/10 19:50:22;;;;;;;1.35;1.10;;;22.90;68.70;;;;;;6085732;28;89067;-71
2023/03/10 19:53:28;;;;;;;2.65;1.45;;;22.80;68.60;;;;;;6084628;28;87866;-70
2023/03/10 19:56:31;;;;;;;1.63;1.30;;;22.90;68.60;;;;;;6076887;28;89072;-72
2023/03/10 19:59:38;;;;;;;1.30;1.13;;;22.90;68.60;;;;;;6085380;28;88099;-71
2023/03/10 20:02:43;;;;;;;1.17;1.08;;;22.90;68.60;;;;;;6081742;28;88167;-71
2023/03/10 20:05:48;;;;;;;1.10;1.00;;;22.90;68.50;;;;;;6084845;28;89125;-72
2023/03/10 20:08:52;;;;;;;1.20;1.10;;;22.80;68.40;;;;;;6079202;28;87145;-71
2023/03/10 20:11:55;;;;;;;0.85;0.80;;;22.90;68.50;;;;;;6068920;28;89607;-71
2023/03/10 20:15:00;;;;;;;2.15;1.17;;;22.90;68.40;;;;;;6082388;28;88091;-71
2023/03/10 20:18:03;;;;;;;1.65;1.13;;;22.90;68.40;;;;;;6085971;28;88297;-71
2023/03/10 20:21:07;;;;;;;3.13;1.27;;;22.90;68.40;;;;;;6085341;28;88044;-72
2023/03/10 20:24:10;;;;;;;1.35;1.10;;;22.90;68.40;;;;;;6085881;28;87083;-71
2023/03/10 20:27:14;;;;;;;1.52;1.15;;;22.90;68.40;;;;;;6077135;28;89233;-71
2023/03/10 20:30:21;;;;;;;1.88;1.15;;;22.90;68.40;;;;;;6078447;28;88219;-70
2023/03/10 20:33:23;;;;;;;1.23;1.10;;;22.90;68.40;;;;;;6079657;28;88256;-71
2023/03/10 20:36:27;;;;;;;1.45;1.02;;;23.00;68.60;;;;;;6070839;28;88286;-71
2023/03/10 20:39:30;;;;;;;2.22;1.40;;;22.90;68.50;;;;;;6085294;28;88218;-71
2023/03/10 20:42:33;;;;;;;3.65;1.50;;;22.90;68.50;;;;;;6083833;28;88429;-70
2023/03/10 20:45:40;;;;;;;1.10;1.00;;;22.90;69.40;;;;;;6084201;28;88299;-71
2023/03/10 20:48:43;;;;;;;1.30;1.05;;;22.90;68.60;;;;;;6080903;28;86882;-71
2023/03/10 20:51:47;;;;;;;1.08;0.98;;;22.90;68.60;;;;;;6083788;28;88054;-71
2023/03/10 20:54:50;;;;;;;2.05;1.15;;;22.90;68.60;;;;;;6085162;28;87533;-71
2023/03/10 20:57:55;;;;;;;1.30;1.20;;;22.90;68.60;;;;;;6075314;28;89180;-72
2023/03/10 21:01:00;;;;;;;1.67;1.25;;;22.90;68.60;;;;;;6084517;28;87726;-71
2023/03/10 21:04:03;;;;;;;1.30;1.05;;;22.90;68.60;;;;;;6082751;28;89079;-71
2023/03/10 21:07:06;;;;;;;1.35;1.10;;;23.00;68.60;;;;;;6083407;28;88003;-71
2023/03/10 21:10:13;;;;;;;2.17;1.38;;;23.00;68.70;;;;;;6079900;28;87845;-71
2023/03/10 21:13:16;;;;;;;1.45;1.08;;;23.00;68.70;;;;;;6077266;28;88046;-71
2023/03/10 21:16:21;;;;;;;1.15;1.05;;;22.90;68.70;;;;;;6084822;28;89160;-71
2023/03/10 21:19:26;;;;;;;2.25;1.15;;;23.00;68.70;;;;;;6084187;28;86806;-71
2023/03/10 21:22:33;;;;;;;0.85;0.85;;;23.00;68.80;;;;;;6080604;28;88312;-71
2023/03/10 21:25:36;;;;;;;1.17;1.00;;;23.00;68.80;;;;;;6081408;28;89245;-71
2023/03/10 21:28:38;;;;;;;1.25;1.10;;;23.00;68.80;;;;;;6084026;28;89180;-70
2023/03/10 21:31:42;;;;;;;1.88;1.38;;;23.00;68.70;;;;;;6082434;28;89069;-71
2023/03/10 21:34:45;;;;;;;1.42;1.15;;;23.00;69.50;;;;;;6084843;28;87986;-71
2023/03/10 21:37:48;;;;;;;1.20;1.10;;;23.00;68.60;;;;;;6084693;28;88035;-71
2023/03/10 21:40:50;;;;;;;1.58;1.23;;;23.00;68.60;;;;;;6083738;28;88290;-70
2023/03/10 21:43:53;;;;;;;1.67;1.20;;;23.00;68.60;;;;;;6083587;28;89187;-71
2023/03/10 21:46:56;;;;;;;1.65;1.30;;;23.00;68.70;;;;;;6076624;28;88927;-70
2023/03/10 21:49:58;;;;;;;2.35;1.30;;;23.00;68.70;;;;;;6084373;28;88244;-70
2023/03/10 21:53:00;;;;;;;1.75;1.25;;;22.90;68.60;;;;;;6083730;28;87933;-70
2023/03/10 21:56:02;;;;;;;2.20;1.75;;;22.90;68.80;;;;;;6072585;28;89399;-70
2023/03/10 21:59:06;;;;;;;1.70;1.52;;;22.90;68.80;;;;;;6069229;28;89993;-70
2023/03/10 22:02:17;;;;;;;2.05;1.80;;;22.90;68.90;;;;;;6084339;28;89227;-70
2023/03/10 22:05:20;;;;;;;2.58;2.00;;;22.90;68.90;;;;;;6084116;28;87954;-71
2023/03/10 22:08:22;;;;;;;3.58;2.38;;;22.90;68.90;;;;;;6083801;28;91326;-70
2023/03/10 22:11:24;;;;;;;2.42;2.13;;;22.80;68.80;;;;;;6077816;28;89088;-71
2023/03/10 22:14:26;;;;;;;3.15;2.25;;;22.80;68.60;;;;;;6084831;28;89116;-70
2023/03/10 22:17:30;;;;;;;2.47;2.22;;;22.80;68.70;;;;;;6084109;28;89182;-70
2023/03/10 22:20:32;;;;;;;4.55;2.95;;;22.80;68.80;;;;;;6083555;28;88332;-71
2023/03/10 22:23:34;;;;;;;4.55;3.15;;;22.80;68.90;;;;;;6083677;28;88102;-70
2023/03/10 22:26:36;;;;;;;3.20;2.90;;;22.80;68.90;;;;;;6083439;28;89136;-71
2023/03/10 22:29:38;;;;;;;3.55;3.00;;;22.70;68.80;;;;;;6073399;28;90013;-69
2023/03/10 22:32:42;;;;;;;3.78;3.20;;;22.70;68.90;;;;;;6082579;28;89019;-70
2023/03/10 22:35:50;;;;;;;3.90;3.30;;;22.80;69.10;;;;;;6075480;28;89076;-70
2023/03/10 22:38:52;;;;;;;5.03;3.40;;;22.70;69.10;;;;;;6080337;28;89138;-70
2023/03/10 22:41:54;;;;;;;3.95;3.42;;;22.70;69.00;;;;;;6083233;28;89446;-70
2023/03/10 22:44:56;;;;;;;5.10;4.03;;;22.70;69.80;;;;;;6083599;28;88042;-70
2023/03/10 22:48:02;;;;;;;4.28;3.60;;;22.70;68.90;;;;;;6083787;28;89044;-70
2023/03/10 22:51:07;;;;;;;4.68;3.75;;;22.70;68.90;;;;;;6083907;28;88485;-70
2023/03/10 22:54:09;;;;;;;4.45;3.97;;;22.70;68.80;;;;;;6083920;28;89514;-70
2023/03/10 22:57:13;;;;;;;4.10;3.70;;;22.70;68.90;;;;;;6084065;28;90088;-70
2023/03/10 23:00:18;;;;;;;4.55;3.83;;;22.70;68.80;;;;;;6083257;28;90013;-69
2023/03/10 23:03:22;;;;;;;4.47;3.58;;;22.70;68.60;;;;;;6079544;28;89159;-69
2023/03/10 23:06:27;;;;;;;4.22;3.38;;;22.60;68.10;;;;;;6080427;28;90604;-70
2023/03/10 23:09:29;;;;;;;3.97;3.30;;;22.60;67.70;;;;;;6082920;28;89052;-69
2023/03/10 23:12:32;;;;;;;6.28;4.00;;;22.70;67.60;;;;;;6085810;28;89321;-69
2023/03/10 23:15:36;;;;;;;4.75;3.60;;;22.60;67.30;;;;;;6083891;28;89348;-69
2023/03/10 23:18:40;;;;;;;4.63;3.70;;;22.60;67.20;;;;;;6083609;28;89483;-69
2023/03/10 23:21:42;;;;;;;3.45;3.10;;;22.60;66.90;;;;;;6088396;28;88760;-70
2023/03/10 23:24:44;;;;;;;4.18;3.33;;;22.60;66.50;;;;;;6083435;28;88128;-69
2023/03/10 23:27:46;;;;;;;3.60;3.08;;;22.60;66.70;;;;;;6087057;28;87546;-68
2023/03/10 23:30:50;;;;;;;3.58;2.97;;;22.60;66.60;;;;;;6086201;28;88984;-69
2023/03/10 23:33:53;;;;;;;4.40;3.35;;;22.60;66.40;;;;;;6086559;28;89064;-70
2023/03/10 23:36:57;;;;;;;7.85;4.22;;;22.60;66.20;;;;;;6084569;28;89082;-69
2023/03/10 23:39:59;;;;;;;3.60;3.20;;;22.50;66.00;;;;;;6085393;28;89195;-69
2023/03/10 23:43:02;;;;;;;3.25;2.90;;;22.50;65.90;;;;;;6081621;28;89103;-69
2023/03/10 23:46:05;;;;;;;6.10;3.63;;;22.60;65.90;;;;;;6083806;28;89193;-69
2023/03/10 23:49:09;;;;;;;3.22;2.92;;;22.50;65.70;;;;;;6086339;28;88960;-70
2023/03/10 23:52:11;;;;;;;3.05;2.60;;;22.50;65.40;;;;;;6087910;28;88374;-70
2023/03/10 23:55:14;;;;;;;3.22;2.85;;;22.60;65.40;;;;;;6085916;28;87987;-69
2023/03/10 23:58:18;;;;;;;3.65;2.42;;;22.50;64.70;;;;;;6086978;28;87947;-70
